Terminal Aerodrome Forecast
Issued by NWS

Home | Current Version | Previous Version | Text Only | Print | Product List | Glossary On
Versions: 1 2 3 4 5 6 7 8 9 10 11 12 13 14
395
FTUS42 KMLB 082222 AAA
TAFFPR
TAF AMD
KFPR 082222Z 0822/0918 24011KT P6SM SCT050 BKN250 WS015/25032KT
     FM090700 26015G24KT P6SM BKN050
     FM091600 27018G27KT P6SM BKN050=

USA.gov is the U.S. government's official web portal to all federal, state and local government web resources and services.